Time;durP1;ratioP1;P1;durP2;ratioP2;P2;SDS_P1;SDS_P2;PMS_P1;PMS_P2;Temp;Humidity;BMP_temperature;BMP_pressure;BME280_temperature;BME280_humidity;BME280_pressure;Samples;Min_cycle;Max_cycle;Signal;HPM_P1;HPM_P2
2020/12/10 00:00:30;;;;;;;62.63;22.77;;;6.00;97.50;;;;;;5013190;28;20455;-74
2020/12/10 00:02:56;;;;;;;61.65;22.85;;;6.00;97.50;;;;;;5015188;28;20124;-72
2020/12/10 00:05:22;;;;;;;62.35;22.38;;;5.90;97.60;;;;;;5012768;28;20442;-73
2020/12/10 00:07:48;;;;;;;64.22;22.45;;;5.90;97.70;;;;;;5013052;28;20037;-74
2020/12/10 00:10:14;;;;;;;63.38;23.00;;;5.80;97.70;;;;;;5013582;28;20511;-73
2020/12/10 00:12:44;;;;;;;68.20;23.45;;;5.70;97.80;;;;;;5011748;28;20452;-72
2020/12/10 00:15:11;;;;;;;67.22;22.35;;;5.80;98.10;;;;;;5014911;28;20080;-72
2020/12/10 00:17:37;;;;;;;65.53;23.73;;;5.70;97.90;;;;;;5013213;28;20037;-72
2020/12/10 00:20:08;;;;;;;72.15;23.80;;;5.70;97.90;;;;;;5012616;28;20038;-71
2020/12/10 00:22:34;;;;;;;66.95;23.45;;;5.60;97.80;;;;;;5012828;28;20427;-71
2020/12/10 00:25:01;;;;;;;64.55;23.77;;;5.60;98.00;;;;;;5012893;28;20038;-70
2020/12/10 00:27:27;;;;;;;71.10;25.45;;;5.60;98.00;;;;;;5012333;28;20433;-71
2020/12/10 00:29:57;;;;;;;61.42;22.65;;;5.70;98.10;;;;;;5014141;28;20097;-71
2020/12/10 00:32:26;;;;;;;69.95;24.70;;;5.80;98.00;;;;;;5012552;28;20030;-71
2020/12/10 00:34:56;;;;;;;72.53;24.17;;;5.60;98.00;;;;;;5012658;28;20034;-72
2020/12/10 00:37:24;;;;;;;67.10;25.27;;;5.70;98.10;;;;;;5012414;28;20104;-70
2020/12/10 00:39:51;;;;;;;78.45;25.15;;;5.60;98.10;;;;;;5012395;28;20471;-71
2020/12/10 00:42:16;;;;;;;74.70;24.02;;;5.60;98.00;;;;;;5012545;28;20038;-71
2020/12/10 00:44:42;;;;;;;80.03;24.90;;;5.70;98.20;;;;;;5013997;28;20040;-70
2020/12/10 00:47:08;;;;;;;67.38;22.80;;;5.50;98.40;;;;;;5012597;28;20030;-71
2020/12/10 00:49:33;;;;;;;69.75;24.00;;;5.70;98.60;;;;;;5011919;28;20478;-70
2020/12/10 00:51:59;;;;;;;69.78;24.67;;;5.80;98.30;;;;;;5011972;28;20184;-71
2020/12/10 00:54:24;;;;;;;66.47;23.40;;;5.80;98.40;;;;;;5011954;28;20042;-70
2020/12/10 00:56:50;;;;;;;72.75;24.35;;;5.60;98.20;;;;;;5013739;28;20352;-70
2020/12/10 00:59:17;;;;;;;66.40;23.77;;;5.60;98.20;;;;;;5011869;28;20375;-70
2020/12/10 01:01:43;;;;;;;66.65;24.08;;;5.60;98.20;;;;;;5012139;28;20506;-72
2020/12/10 01:04:13;;;;;;;68.30;23.27;;;5.60;98.20;;;;;;5010400;28;20034;-70
2020/12/10 01:06:39;;;;;;;75.75;24.60;;;5.50;98.30;;;;;;5011913;28;20113;-71
2020/12/10 01:09:07;;;;;;;68.20;24.40;;;5.50;98.30;;;;;;5013742;28;20038;-70
2020/12/10 01:11:33;;;;;;;76.18;26.80;;;5.50;98.30;;;;;;5012308;28;20030;-71
2020/12/10 01:14:00;;;;;;;75.57;25.52;;;5.60;98.40;;;;;;5012220;28;20028;-71
2020/12/10 01:16:26;;;;;;;73.93;25.15;;;5.60;98.40;;;;;;5011785;28;20022;-71
2020/12/10 01:18:51;;;;;;;75.85;25.58;;;5.50;98.80;;;;;;5011805;28;20057;-71
2020/12/10 01:21:27;;;;;;;65.03;21.90;;;5.70;98.90;;;;;;5011434;28;20033;-70
2020/12/10 01:23:53;;;;;;;78.13;25.60;;;5.80;98.50;;;;;;5013263;28;20022;-71
2020/12/10 01:26:19;;;;;;;69.70;24.63;;;5.90;98.30;;;;;;5015488;28;20040;-70
2020/12/10 01:28:45;;;;;;;72.07;25.25;;;6.00;98.30;;;;;;5015843;28;20030;-69
2020/12/10 01:31:13;;;;;;;65.75;24.58;;;6.00;98.20;;;;;;5014782;28;20042;-70
2020/12/10 01:33:39;;;;;;;66.63;23.08;;;5.90;98.10;;;;;;5014534;28;20463;-71
2020/12/10 01:36:04;;;;;;;67.63;24.73;;;5.80;98.20;;;;;;5017410;28;20018;-71
2020/12/10 01:38:30;;;;;;;77.53;24.17;;;5.90;98.20;;;;;;5015354;28;20030;-70
2020/12/10 01:40:56;;;;;;;72.13;25.85;;;5.90;98.20;;;;;;5015930;28;20116;-71
2020/12/10 01:43:21;;;;;;;75.53;25.88;;;5.90;98.20;;;;;;5015602;28;20034;-71
2020/12/10 01:45:47;;;;;;;76.90;24.75;;;5.90;98.10;;;;;;5015617;28;20042;-71
2020/12/10 01:48:12;;;;;;;67.80;25.00;;;5.90;98.10;;;;;;5015461;28;20080;-71
2020/12/10 01:50:38;;;;;;;72.20;24.20;;;5.90;98.10;;;;;;5017098;28;20129;-71
2020/12/10 01:53:04;;;;;;;58.60;22.52;;;6.00;98.10;;;;;;5015041;28;20069;-72
2020/12/10 01:55:30;;;;;;;62.25;21.88;;;6.00;98.10;;;;;;5015588;28;20052;-72
2020/12/10 01:57:56;;;;;;;62.97;23.83;;;6.00;98.00;;;;;;5015360;28;20025;-71
2020/12/10 02:00:22;;;;;;;62.28;22.27;;;6.00;98.00;;;;;;5014415;28;20379;-72
2020/12/10 02:02:55;;;;;;;64.80;24.13;;;6.00;98.10;;;;;;5016767;28;20065;-72
2020/12/10 02:05:21;;;;;;;66.93;23.55;;;6.00;98.00;;;;;;5015147;28;20034;-72
2020/12/10 02:07:47;;;;;;;72.57;23.60;;;5.90;98.00;;;;;;5015046;28;20029;-71
2020/12/10 02:10:13;;;;;;;61.67;23.08;;;5.90;98.30;;;;;;5015220;28;20026;-71
2020/12/10 02:12:40;;;;;;;69.78;24.25;;;5.80;98.20;;;;;;5015079;28;20054;-71
2020/12/10 02:15:07;;;;;;;70.35;24.40;;;5.80;98.50;;;;;;5015675;28;20026;-73
2020/12/10 02:17:32;;;;;;;59.85;21.88;;;5.70;98.60;;;;;;5015082;28;20030;-71
2020/12/10 02:19:58;;;;;;;69.88;22.42;;;5.80;98.50;;;;;;5014905;28;20049;-71
2020/12/10 02:22:24;;;;;;;60.58;23.33;;;5.90;98.50;;;;;;5014914;28;20030;-72
2020/12/10 02:24:49;;;;;;;60.08;22.30;;;5.90;98.20;;;;;;5014636;28;20091;-72
2020/12/10 02:27:15;;;;;;;59.42;22.33;;;5.90;98.10;;;;;;5014776;28;20113;-71
2020/12/10 02:29:40;;;;;;;61.30;21.63;;;6.00;98.30;;;;;;5015250;28;20084;-72
2020/12/10 02:32:06;;;;;;;63.47;23.50;;;6.00;98.20;;;;;;5013993;28;20085;-71
2020/12/10 02:34:32;;;;;;;67.18;24.20;;;6.00;98.30;;;;;;5014568;28;20042;-71
2020/12/10 02:36:58;;;;;;;70.43;24.65;;;6.00;98.30;;;;;;5012904;28;20042;-72
2020/12/10 02:39:24;;;;;;;65.97;23.38;;;6.00;98.40;;;;;;5014478;28;20042;-71
2020/12/10 02:41:50;;;;;;;71.35;25.20;;;6.00;98.50;;;;;;5016129;28;20033;-72
2020/12/10 02:44:15;;;;;;;71.65;24.70;;;6.00;98.50;;;;;;5014313;28;20448;-71
2020/12/10 02:46:41;;;;;;;73.88;24.23;;;6.00;98.40;;;;;;5014455;28;20448;-72
2020/12/10 02:49:07;;;;;;;66.30;22.88;;;6.00;98.60;;;;;;5014302;28;20057;-71
2020/12/10 02:51:33;;;;;;;63.80;23.80;;;5.90;98.60;;;;;;5014477;28;20049;-71
2020/12/10 02:53:58;;;;;;;70.18;24.75;;;5.90;98.40;;;;;;5014323;28;20049;-71
2020/12/10 02:56:24;;;;;;;73.47;24.48;;;6.00;98.30;;;;;;5014116;28;20045;-71
2020/12/10 02:58:49;;;;;;;70.50;24.98;;;5.90;98.40;;;;;;5014324;28;20121;-70
2020/12/10 03:01:15;;;;;;;66.65;23.23;;;6.00;98.50;;;;;;5013523;28;20139;-71
2020/12/10 03:03:41;;;;;;;68.43;24.70;;;6.10;98.50;;;;;;5013967;28;20038;-70
2020/12/10 03:06:08;;;;;;;65.75;23.73;;;6.10;98.40;;;;;;5015888;28;20032;-72
2020/12/10 03:08:37;;;;;;;67.85;24.17;;;6.00;98.40;;;;;;5013764;28;20132;-71
2020/12/10 03:11:05;;;;;;;63.13;23.00;;;6.00;98.50;;;;;;5012903;28;20033;-71
2020/12/10 03:13:31;;;;;;;;;;;6.00;98.40;;;;;;5014307;28;20029;-71
2020/12/10 03:15:56;;;;;;;64.70;22.77;;;6.10;98.40;;;;;;5013928;28;20004;-71
2020/12/10 03:18:23;;;;;;;67.10;24.17;;;6.10;98.50;;;;;;5013744;28;20073;-71
2020/12/10 03:20:49;;;;;;;68.65;22.63;;;6.00;98.40;;;;;;5015244;28;20018;-71
2020/12/10 03:23:14;;;;;;;69.47;24.88;;;6.10;98.50;;;;;;5013619;28;20044;-71
2020/12/10 03:25:40;;;;;;;63.70;24.02;;;6.00;98.40;;;;;;5013847;28;20371;-72
2020/12/10 03:28:07;;;;;;;67.90;23.75;;;5.90;98.30;;;;;;5013735;28;20030;-71
2020/12/10 03:30:33;;;;;;;61.45;23.77;;;6.00;98.50;;;;;;5013718;28;20561;-70
2020/12/10 03:32:59;;;;;;;76.85;25.80;;;5.90;98.60;;;;;;5015325;28;20447;-71
2020/12/10 03:35:25;;;;;;;69.65;24.58;;;6.00;98.60;;;;;;5013551;28;20044;-70
2020/12/10 03:37:51;;;;;;;68.30;25.73;;;6.00;98.60;;;;;;5013287;28;20057;-70
2020/12/10 03:40:17;;;;;;;65.35;24.23;;;5.80;98.50;;;;;;5013004;28;20041;-73
2020/12/10 03:42:42;;;;;;;63.67;24.27;;;5.80;98.50;;;;;;5012075;28;20123;-70
2020/12/10 03:45:08;;;;;;;72.03;25.20;;;5.70;98.50;;;;;;5014952;28;20022;-71
2020/12/10 03:47:34;;;;;;;70.00;23.88;;;5.80;98.70;;;;;;5011731;28;20052;-71
2020/12/10 03:50:00;;;;;;;60.10;22.27;;;5.80;98.60;;;;;;5013137;28;20464;-71
2020/12/10 03:52:25;;;;;;;60.25;22.95;;;5.80;98.40;;;;;;5013233;28;20543;-71
2020/12/10 03:54:52;;;;;;;64.82;23.83;;;5.80;98.30;;;;;;5013234;28;20394;-71
2020/12/10 03:57:17;;;;;;;62.85;21.58;;;5.90;98.30;;;;;;5013047;28;20083;-70
2020/12/10 03:59:43;;;;;;;66.47;23.40;;;5.90;98.40;;;;;;5013651;28;20030;-71
2020/12/10 04:02:09;;;;;;;58.60;22.40;;;5.80;98.50;;;;;;5012977;28;20483;-71
2020/12/10 04:04:34;;;;;;;64.35;23.35;;;5.80;98.30;;;;;;5012869;28;20383;-70
2020/12/10 04:07:00;;;;;;;81.95;28.85;;;5.90;98.60;;;;;;5008599;28;20037;-70
2020/12/10 04:09:26;;;;;;;65.25;25.02;;;5.90;98.60;;;;;;4994960;28;20038;-72
2020/12/10 04:11:51;;;;;;;63.72;22.58;;;5.90;98.60;;;;;;5014382;28;20053;-71
2020/12/10 04:14:17;;;;;;;64.85;24.23;;;5.80;98.60;;;;;;5012816;28;20038;-72
2020/12/10 04:16:43;;;;;;;68.15;23.20;;;5.70;98.80;;;;;;5013018;28;20124;-72
2020/12/10 04:19:08;;;;;;;66.20;23.08;;;5.70;98.70;;;;;;5011697;28;20092;-70
2020/12/10 04:21:34;;;;;;;62.83;22.08;;;5.70;98.90;;;;;;5012523;28;20116;-71
2020/12/10 04:24:00;;;;;;;69.07;25.58;;;5.70;99.00;;;;;;5014279;28;20037;-71
2020/12/10 04:26:25;;;;;;;66.53;26.20;;;5.90;99.10;;;;;;5012668;28;20060;-70
2020/12/10 04:28:51;;;;;;;73.18;24.63;;;6.00;98.80;;;;;;5012588;28;20030;-71
2020/12/10 04:31:17;;;;;;;57.25;22.77;;;6.00;98.80;;;;;;5011875;28;20041;-71
2020/12/10 04:33:43;;;;;;;63.78;24.05;;;6.00;98.70;;;;;;5012568;28;20032;-70
2020/12/10 04:36:08;;;;;;;69.55;25.10;;;5.90;98.80;;;;;;5014196;28;20022;-70
2020/12/10 04:38:34;;;;;;;61.03;23.08;;;5.80;98.90;;;;;;5012319;28;20037;-72
2020/12/10 04:41:01;;;;;;;69.82;23.35;;;6.00;99.00;;;;;;5012381;28;20034;-72
2020/12/10 04:43:27;;;;;;;68.28;25.10;;;5.90;99.00;;;;;;5012149;28;20328;-71
2020/12/10 04:46:03;;;;;;;69.55;24.15;;;6.00;98.90;;;;;;5012454;28;20452;-71
2020/12/10 04:48:33;;;;;;;59.33;23.40;;;6.00;98.70;;;;;;5012142;28;20114;-71
2020/12/10 04:51:02;;;;;;;67.90;24.10;;;6.00;98.80;;;;;;5013024;28;20022;-71
2020/12/10 04:53:28;;;;;;;67.75;24.58;;;5.80;98.90;;;;;;5010884;28;20108;-70
2020/12/10 04:55:56;;;;;;;66.88;25.38;;;5.80;98.90;;;;;;5010854;28;20050;-72
2020/12/10 04:58:22;;;;;;;73.15;25.58;;;5.80;99.10;;;;;;5012216;28;20053;-72
2020/12/10 05:00:56;;;;;;;70.30;25.42;;;6.00;99.00;;;;;;5012212;28;20448;-72
2020/12/10 05:03:22;;;;;;;64.85;24.58;;;6.00;98.60;;;;;;5012036;28;20033;-70
2020/12/10 05:05:48;;;;;;;77.03;25.63;;;6.00;98.60;;;;;;5013992;28;20033;-71
2020/12/10 05:08:13;;;;;;;74.93;26.17;;;6.00;98.70;;;;;;5011786;28;20034;-71
2020/12/10 05:10:44;;;;;;;76.50;26.00;;;5.90;98.60;;;;;;5011950;28;20056;-71
2020/12/10 05:13:12;;;;;;;68.32;25.88;;;6.00;98.70;;;;;;5011810;28;20439;-71
2020/12/10 05:15:39;;;;;;;71.43;26.10;;;6.00;98.80;;;;;;5012344;28;20508;-71
2020/12/10 05:18:07;;;;;;;68.80;25.15;;;5.90;98.80;;;;;;5013556;28;20045;-70
2020/12/10 05:20:57;;;;;;;76.78;26.10;;;5.90;98.80;;;;;;5011666;28;20091;-71
2020/12/10 05:23:35;;;;;;;80.10;26.90;;;6.00;98.90;;;;;;5011595;28;20041;-72
2020/12/10 05:26:02;;;;;;;88.82;28.88;;;5.90;98.90;;;;;;5011616;28;20574;-71
2020/12/10 05:28:49;;;;;;;94.75;28.35;;;5.90;99.00;;;;;;5011535;28;20034;-73
2020/12/10 05:31:16;;;;;;;80.22;26.83;;;5.90;99.20;;;;;;5011760;28;20077;-71
2020/12/10 05:33:58;;;;;;;91.00;28.38;;;5.90;99.10;;;;;;5011904;28;20088;-71
2020/12/10 05:36:28;;;;;;;81.70;26.77;;;5.90;99.30;;;;;;5011468;28;20101;-71
2020/12/10 05:39:11;;;;;;;92.97;30.80;;;5.90;99.40;;;;;;5013394;28;20040;-72
2020/12/10 05:41:42;;;;;;;100.25;30.35;;;6.00;99.40;;;;;;5011614;28;20034;-71
2020/12/10 05:44:26;;;;;;;103.00;30.75;;;6.00;99.30;;;;;;5011354;28;20042;-71
2020/12/10 05:47:05;;;;;;;98.15;30.60;;;6.00;99.60;;;;;;5011230;28;20038;-71
2020/12/10 05:49:31;;;;;;;102.85;31.63;;;5.90;99.50;;;;;;5011779;28;20049;-70
2020/12/10 05:52:03;;;;;;;105.68;32.63;;;5.90;99.70;;;;;;5011329;28;20397;-71
2020/12/10 05:54:33;;;;;;;101.72;30.98;;;6.00;99.90;;;;;;5011439;28;20494;-71
2020/12/10 05:57:04;;;;;;;102.72;30.73;;;6.00;99.80;;;;;;5013165;28;20022;-72
2020/12/10 05:59:31;;;;;;;100.25;29.98;;;6.00;99.80;;;;;;5010327;28;20041;-71
2020/12/10 06:02:09;;;;;;;113.40;34.37;;;6.00;99.90;;;;;;5011152;28;20468;-71
2020/12/10 06:04:35;;;;;;;110.00;33.55;;;6.10;99.90;;;;;;5010795;28;20302;-72
2020/12/10 06:07:01;;;;;;;102.25;32.88;;;6.10;99.90;;;;;;5006741;28;20030;-72
2020/12/10 06:09:28;;;;;;;104.18;31.60;;;6.00;99.90;;;;;;4992486;28;20480;-71
2020/12/10 06:12:03;;;;;;;90.43;30.88;;;6.10;99.90;;;;;;5015664;28;20060;-71
2020/12/10 06:14:29;;;;;;;98.25;30.30;;;6.20;99.90;;;;;;5015357;28;20057;-71
2020/12/10 06:17:08;;;;;;;95.82;30.63;;;6.10;99.90;;;;;;5015000;28;20076;-73
2020/12/10 06:19:35;;;;;;;102.32;30.33;;;6.10;99.90;;;;;;5014775;28;20033;-72
2020/12/10 06:22:22;;;;;;;101.05;31.48;;;5.90;99.90;;;;;;5013683;28;20033;-71
2020/12/10 06:24:48;;;;;;;102.63;30.33;;;6.00;99.90;;;;;;5013438;28;20456;-72
2020/12/10 06:27:30;;;;;;;94.10;29.40;;;6.00;99.90;;;;;;5014798;28;20030;-71
2020/12/10 06:30:10;;;;;;;91.05;29.38;;;6.10;99.90;;;;;;5016254;28;20030;-72
2020/12/10 06:32:46;;;;;;;94.75;28.25;;;6.00;99.90;;;;;;5013880;28;20030;-71
2020/12/10 06:35:29;;;;;;;83.47;26.80;;;6.10;99.90;;;;;;5013451;28;20037;-71
2020/12/10 06:37:55;;;;;;;80.57;27.25;;;5.90;99.90;;;;;;5014439;28;20046;-71
2020/12/10 06:40:41;;;;;;;79.88;27.38;;;5.90;99.90;;;;;;5014301;28;20057;-72
2020/12/10 06:43:08;;;;;;;73.95;25.35;;;5.90;99.90;;;;;;5014444;28;20182;-71
2020/12/10 06:45:39;;;;;;;76.00;26.08;;;6.00;99.90;;;;;;5014212;28;20531;-73
2020/12/10 06:48:10;;;;;;;68.28;24.38;;;6.10;99.90;;;;;;5015701;28;20073;-71
2020/12/10 06:50:38;;;;;;;68.13;24.70;;;5.90;99.90;;;;;;5013583;28;20371;-72
2020/12/10 06:53:11;;;;;;;69.18;24.17;;;6.00;99.90;;;;;;5012543;28;20133;-72
2020/12/10 06:55:55;;;;;;;62.90;24.58;;;6.00;99.90;;;;;;5013276;28;20037;-71
2020/12/10 06:58:21;;;;;;;63.30;23.33;;;6.20;99.90;;;;;;5012802;28;20164;-70
2020/12/10 07:00:49;;;;;;;63.65;23.42;;;6.20;99.90;;;;;;5014257;28;20121;-71
2020/12/10 07:03:27;;;;;;;60.83;22.25;;;6.20;99.90;;;;;;5012640;28;20042;-71
2020/12/10 07:05:53;;;;;;;;;;;6.20;99.90;;;;;;5015426;28;20044;-72
2020/12/10 07:08:19;;;;;;;58.95;23.15;;;6.10;99.90;;;;;;5011260;28;19952;-71
2020/12/10 07:10:48;;;;;;;54.97;22.48;;;6.10;99.90;;;;;;4994370;28;20034;-71
2020/12/10 07:13:16;;;;;;;57.08;22.83;;;6.20;99.90;;;;;;4992932;28;20356;-71
2020/12/10 07:15:49;;;;;;;55.95;21.40;;;6.20;99.90;;;;;;4992529;28;20504;-72
2020/12/10 07:18:14;;;;;;;55.47;21.35;;;6.30;99.90;;;;;;4993769;28;20042;-71
2020/12/10 07:20:40;;;;;;;50.78;21.13;;;6.20;99.90;;;;;;4995689;28;20532;-70
2020/12/10 07:23:06;;;;;;;52.28;20.67;;;6.20;99.90;;;;;;4993983;28;20034;-69
2020/12/10 07:25:32;;;;;;;50.08;20.48;;;6.20;99.90;;;;;;4994016;28;20042;-69
2020/12/10 07:27:58;;;;;;;48.67;19.85;;;6.20;99.90;;;;;;4994033;28;20045;-71
2020/12/10 07:30:25;;;;;;;57.15;22.52;;;6.10;99.90;;;;;;4993657;28;20089;-70
2020/12/10 07:32:53;;;;;;;52.53;22.50;;;6.20;99.90;;;;;;4995475;28;20022;-71
2020/12/10 07:35:26;;;;;;;;;;;6.20;99.90;;;;;;4994007;28;20062;-70
2020/12/10 07:37:51;;;;;;;52.83;19.95;;;6.20;99.90;;;;;;4992971;28;20004;-70
2020/12/10 07:40:18;;;;;;;48.38;20.92;;;6.30;99.90;;;;;;4993446;28;20129;-71
2020/12/10 07:42:44;;;;;;;61.25;20.95;;;6.30;99.90;;;;;;4993239;28;20458;-70
2020/12/10 07:45:19;;;;;;;52.42;21.23;;;6.30;99.90;;;;;;4993885;28;20102;-70
2020/12/10 07:47:55;;;;;;;53.80;21.80;;;6.20;99.90;;;;;;4993808;28;20154;-70
2020/12/10 07:50:23;;;;;;;58.28;22.40;;;6.30;99.90;;;;;;4993449;28;20041;-71
2020/12/10 07:52:53;;;;;;;;;;;6.30;99.90;;;;;;4993205;28;20560;-71
2020/12/10 07:55:27;;;;;;;50.10;20.92;;;6.40;99.90;;;;;;4993324;28;19914;-71
2020/12/10 07:57:59;;;;;;;58.75;22.83;;;6.30;99.90;;;;;;4992410;28;20483;-70
2020/12/10 08:00:28;;;;;;;64.38;23.42;;;6.40;99.90;;;;;;4992890;28;20045;-70
2020/12/10 08:03:26;;;;;;;57.80;23.80;;;6.50;99.90;;;;;;4994679;28;20349;-70
2020/12/10 08:06:13;;;;;;;55.83;21.42;;;6.50;99.90;;;;;;4977916;28;20453;-72
2020/12/10 08:08:43;;;;;;;61.25;23.90;;;6.50;99.90;;;;;;4992336;28;20122;-72
2020/12/10 08:11:19;;;;;;;58.78;21.80;;;6.70;99.90;;;;;;4992035;28;20030;-73
2020/12/10 08:14:08;;;;;;;56.92;22.02;;;6.50;99.90;;;;;;4992841;28;20464;-74
2020/12/10 08:16:43;;;;;;;53.70;21.65;;;6.50;99.90;;;;;;4992970;28;20042;-71
2020/12/10 08:19:16;;;;;;;57.58;22.08;;;6.50;99.90;;;;;;4992572;28;20050;-71
2020/12/10 08:21:44;;;;;;;58.08;23.45;;;6.50;99.90;;;;;;4992642;28;20479;-70
2020/12/10 08:24:10;;;;;;;64.75;23.88;;;6.50;99.90;;;;;;4993055;28;20456;-72
2020/12/10 08:26:35;;;;;;;64.20;23.15;;;6.60;99.90;;;;;;4992724;28;20034;-75
2020/12/10 08:29:02;;;;;;;63.75;22.70;;;6.60;99.90;;;;;;4992926;28;20041;-74
2020/12/10 08:31:29;;;;;;;53.58;20.15;;;6.60;99.90;;;;;;4992850;28;20042;-74
2020/12/10 08:33:56;;;;;;;62.35;22.88;;;6.60;99.90;;;;;;4992069;28;20468;-72
2020/12/10 08:36:29;;;;;;;60.22;22.00;;;6.60;99.90;;;;;;4992475;28;20101;-75
2020/12/10 08:38:57;;;;;;;59.30;22.60;;;6.70;99.90;;;;;;4993229;28;20023;-72
2020/12/10 08:41:36;;;;;;;60.83;22.27;;;6.60;99.90;;;;;;4992439;28;20085;-72
2020/12/10 08:44:07;;;;;;;55.50;21.50;;;6.60;99.90;;;;;;4991569;28;20042;-72
2020/12/10 08:46:35;;;;;;;52.47;20.65;;;6.60;99.90;;;;;;4992231;28;20034;-73
2020/12/10 08:49:14;;;;;;;;;;;6.70;99.90;;;;;;4992867;28;20114;-74
2020/12/10 08:51:40;;;;;;;71.13;25.52;;;6.50;99.90;;;;;;4992307;28;19910;-73
2020/12/10 08:54:06;;;;;;;61.78;22.45;;;6.50;99.90;;;;;;4992394;28;20072;-71
2020/12/10 08:56:37;;;;;;;78.22;25.17;;;6.60;99.90;;;;;;4992281;28;20743;-72
2020/12/10 08:59:03;;;;;;;64.43;22.88;;;6.70;99.90;;;;;;4992338;28;20049;-71
2020/12/10 09:01:28;;;;;;;65.65;24.08;;;6.60;99.90;;;;;;4991513;28;20038;-76
2020/12/10 09:03:54;;;;;;;72.13;26.08;;;6.50;99.90;;;;;;4992279;28;20052;-74
2020/12/10 09:06:20;;;;;;;69.93;24.95;;;6.70;99.90;;;;;;4991976;28;20037;-73
2020/12/10 09:08:46;;;;;;;75.88;26.90;;;6.60;99.90;;;;;;4993411;28;20046;-75
2020/12/10 09:11:11;;;;;;;78.47;27.70;;;6.60;99.90;;;;;;4991942;28;20448;-75
2020/12/10 09:13:38;;;;;;;84.13;27.17;;;6.70;99.90;;;;;;4992542;28;20115;-89
2020/12/10 09:16:04;;;;;;;88.50;27.73;;;6.60;99.90;;;;;;4991157;28;20034;-70
2020/12/10 09:18:29;;;;;;;90.47;28.15;;;6.60;99.90;;;;;;4991771;28;20033;-76
2020/12/10 09:20:55;;;;;;;79.28;28.52;;;6.60;99.90;;;;;;4992515;28;20022;-70
2020/12/10 09:23:21;;;;;;;79.13;26.17;;;6.50;99.90;;;;;;4991722;28;20136;-69
2020/12/10 09:25:47;;;;;;;95.18;30.90;;;6.40;99.90;;;;;;4990461;28;20042;-71
2020/12/10 09:28:13;;;;;;;89.38;28.77;;;6.40;99.90;;;;;;4991843;28;20599;-71
2020/12/10 09:30:40;;;;;;;81.38;27.70;;;6.40;99.90;;;;;;4991900;28;20037;-71
2020/12/10 09:33:06;;;;;;;95.53;30.20;;;6.50;99.90;;;;;;4993426;28;20118;-72
2020/12/10 09:35:32;;;;;;;91.15;29.98;;;6.60;99.90;;;;;;4991788;28;20439;-71
2020/12/10 09:38:01;;;;;;;81.05;29.73;;;6.70;99.90;;;;;;4991661;28;20120;-72
2020/12/10 09:40:27;;;;;;;89.90;30.63;;;6.70;99.90;;;;;;4991753;28;20030;-72
2020/12/10 09:42:53;;;;;;;92.78;29.52;;;6.70;99.90;;;;;;4991693;28;20038;-73
2020/12/10 09:45:19;;;;;;;85.70;28.55;;;6.70;99.90;;;;;;4991429;28;20344;-72
2020/12/10 09:47:46;;;;;;;88.78;30.60;;;6.70;99.90;;;;;;4995938;28;20069;-72
2020/12/10 09:50:23;;;;;;;91.57;29.98;;;6.70;99.90;;;;;;4995606;28;20147;-72
2020/12/10 09:58:03;;;;;;;84.00;29.23;;;6.70;99.90;;;;;;4995158;28;20076;-70
2020/12/10 10:00:29;;;;;;;80.65;28.60;;;6.70;99.90;;;;;;4995094;28;20050;-69
2020/12/10 10:02:54;;;;;;;81.93;28.30;;;6.90;99.90;;;;;;4995459;28;20026;-71
2020/12/10 10:05:21;;;;;;;83.13;28.35;;;6.90;99.90;;;;;;4995283;28;20027;-70
2020/12/10 10:07:46;;;;;;;76.18;28.33;;;6.90;99.90;;;;;;4994625;28;20045;-70
2020/12/10 10:10:12;;;;;;;89.05;29.05;;;6.90;99.90;;;;;;4995078;28;20026;-71
2020/12/10 10:12:38;;;;;;;89.22;31.40;;;6.90;99.90;;;;;;4995387;28;20061;-70
2020/12/10 10:15:04;;;;;;;84.25;31.35;;;6.90;99.90;;;;;;4996771;28;20274;-71
2020/12/10 10:17:30;;;;;;;86.20;31.02;;;7.00;99.90;;;;;;4995203;28;20488;-71
2020/12/10 10:19:55;;;;;;;90.30;30.60;;;7.00;99.90;;;;;;4994080;28;20039;-70
2020/12/10 10:22:21;;;;;;;84.50;28.50;;;7.00;99.90;;;;;;4994910;28;20026;-70
2020/12/10 10:24:47;;;;;;;75.13;26.75;;;7.10;99.90;;;;;;4994669;28;20050;-72
2020/12/10 10:27:13;;;;;;;72.03;26.90;;;7.10;99.90;;;;;;4995992;28;20030;-71
2020/12/10 10:29:39;;;;;;;84.63;28.15;;;7.10;99.80;;;;;;4994867;28;20060;-70
2020/12/10 10:32:07;;;;;;;80.63;29.23;;;7.10;99.90;;;;;;4994825;28;20046;-70
2020/12/10 10:34:32;;;;;;;83.57;28.85;;;7.10;99.90;;;;;;4994884;28;20049;-70
2020/12/10 10:36:58;;;;;;;76.60;27.15;;;7.10;99.80;;;;;;4994662;28;20364;-75
2020/12/10 10:39:24;;;;;;;71.20;26.20;;;7.10;99.80;;;;;;4994873;28;20107;-71
2020/12/10 10:41:50;;;;;;;80.00;27.50;;;7.10;99.90;;;;;;4996067;28;20033;-71
2020/12/10 10:44:16;;;;;;;73.22;25.45;;;7.20;99.80;;;;;;4993744;28;20423;-71
2020/12/10 10:46:43;;;;;;;71.97;26.35;;;7.10;99.80;;;;;;4994461;28;20057;-71
2020/12/10 10:49:09;;;;;;;63.33;23.35;;;7.00;99.70;;;;;;4994071;28;20030;-71
2020/12/10 10:51:35;;;;;;;69.22;24.60;;;7.10;99.80;;;;;;4994291;28;20034;-70
2020/12/10 10:54:01;;;;;;;66.78;24.15;;;7.00;99.70;;;;;;4995837;28;20129;-70
2020/12/10 10:56:27;;;;;;;64.72;23.75;;;7.00;99.70;;;;;;4993934;28;20130;-73
2020/12/10 10:58:52;;;;;;;72.07;24.08;;;7.00;99.60;;;;;;4994625;28;20141;-70
2020/12/10 11:01:27;;;;;;;70.88;23.58;;;7.00;99.50;;;;;;4993201;28;20034;-73
2020/12/10 11:03:53;;;;;;;69.80;24.50;;;7.10;99.70;;;;;;4992926;28;20332;-74
2020/12/10 11:06:18;;;;;;;69.35;23.40;;;7.00;99.60;;;;;;4993873;28;20114;-68
2020/12/10 11:08:44;;;;;;;61.33;21.35;;;7.00;99.80;;;;;;4995589;28;20057;-69
2020/12/10 11:11:10;;;;;;;54.75;20.50;;;7.00;99.70;;;;;;4993881;28;20338;-71
2020/12/10 11:13:35;;;;;;;57.13;20.17;;;6.80;99.70;;;;;;4993582;28;20520;-71
2020/12/10 11:16:02;;;;;;;55.63;20.98;;;6.80;99.90;;;;;;4993880;28;20030;-70
2020/12/10 11:18:27;;;;;;;60.60;22.00;;;6.70;99.90;;;;;;4993915;28;20464;-70
2020/12/10 11:20:53;;;;;;;54.55;20.73;;;6.70;99.90;;;;;;4995475;28;20038;-72
2020/12/10 11:23:20;;;;;;;68.13;22.73;;;6.60;99.90;;;;;;4993900;28;20065;-71
2020/12/10 11:25:46;;;;;;;54.55;20.45;;;6.70;99.90;;;;;;4992256;28;20038;-72
2020/12/10 11:28:15;;;;;;;54.15;20.77;;;6.70;99.90;;;;;;4993458;28;20041;-73
2020/12/10 11:30:41;;;;;;;59.90;19.98;;;6.70;99.90;;;;;;4994068;28;20030;-71
2020/12/10 11:33:06;;;;;;;53.03;20.30;;;6.80;99.90;;;;;;4995153;28;20041;-70
2020/12/10 11:35:32;;;;;;;52.38;19.90;;;6.70;99.90;;;;;;4994076;28;20448;-70
2020/12/10 11:37:58;;;;;;;53.25;20.17;;;6.70;99.80;;;;;;4993487;28;20042;-71
2020/12/10 11:40:25;;;;;;;58.75;20.38;;;6.80;99.90;;;;;;4992527;28;20106;-71
2020/12/10 11:42:51;;;;;;;59.60;22.00;;;6.70;99.80;;;;;;4993443;28;20046;-71
2020/12/10 11:45:18;;;;;;;58.45;21.10;;;6.70;99.80;;;;;;4993588;28;20372;-71
2020/12/10 11:47:46;;;;;;;55.88;20.85;;;6.70;99.90;;;;;;4995204;28;20181;-73
2020/12/10 11:50:18;;;;;;;50.70;18.77;;;6.80;99.90;;;;;;4994799;28;20338;-75
2020/12/10 11:52:45;;;;;;;60.40;23.25;;;6.90;99.90;;;;;;4992717;28;20049;-82
2020/12/10 11:55:12;;;;;;;51.65;19.95;;;6.90;99.80;;;;;;4995783;28;20448;-81
2020/12/10 11:57:37;;;;;;;53.17;18.92;;;6.80;99.80;;;;;;4993862;28;20034;-73
2020/12/10 12:00:06;;;;;;;57.38;21.15;;;6.80;99.70;;;;;;4995184;28;20027;-73
2020/12/10 12:02:32;;;;;;;61.30;20.85;;;7.00;99.80;;;;;;4993375;28;20167;-73
2020/12/10 12:04:58;;;;;;;57.88;20.50;;;6.90;99.70;;;;;;4993164;28;20050;-74
2020/12/10 12:07:23;;;;;;;50.80;18.65;;;6.90;99.70;;;;;;4993122;28;20460;-73
2020/12/10 12:09:49;;;;;;;53.72;19.48;;;7.00;99.80;;;;;;4991973;28;20416;-74
2020/12/10 12:12:15;;;;;;;62.17;21.90;;;7.00;99.70;;;;;;4992709;28;20034;-73
2020/12/10 12:14:41;;;;;;;54.63;19.55;;;6.90;99.50;;;;;;4994561;28;20348;-71
2020/12/10 12:17:06;;;;;;;55.63;20.27;;;6.90;99.60;;;;;;4992151;28;20133;-72
2020/12/10 12:19:32;;;;;;;59.05;20.48;;;6.90;99.60;;;;;;4993094;28;20468;-71
2020/12/10 12:22:02;;;;;;;56.45;20.63;;;6.70;99.60;;;;;;4993065;28;20130;-72
2020/12/10 12:24:28;;;;;;;47.08;19.38;;;6.80;99.60;;;;;;4993103;28;20063;-71
2020/12/10 12:26:54;;;;;;;50.55;19.05;;;6.70;99.70;;;;;;4994088;28;20406;-71
2020/12/10 12:29:20;;;;;;;46.38;19.38;;;6.80;99.80;;;;;;4992686;28;20035;-72
2020/12/10 12:31:46;;;;;;;59.40;21.10;;;6.80;99.70;;;;;;4992384;28;20030;-71
2020/12/10 12:34:13;;;;;;;48.25;19.38;;;6.70;99.60;;;;;;4991879;28;20452;-72
2020/12/10 12:36:39;;;;;;;57.88;22.35;;;6.70;99.70;;;;;;4992633;28;20413;-71
2020/12/10 12:39:06;;;;;;;54.63;19.27;;;6.80;99.70;;;;;;4993974;28;20066;-71
2020/12/10 12:41:32;;;;;;;46.25;17.83;;;6.60;99.60;;;;;;4992374;28;20368;-70
2020/12/10 12:43:59;;;;;;;45.78;18.02;;;6.60;99.80;;;;;;4992432;28;20112;-72
2020/12/10 12:46:26;;;;;;;45.70;17.75;;;6.50;99.60;;;;;;4991071;28;20034;-74